Time;durP1;ratioP1;P1;durP2;ratioP2;P2;SDS_P1;SDS_P2;PMS_P1;PMS_P2;Temp;Humidity;BMP_temperature;BMP_pressure;BME280_temperature;BME280_humidity;BME280_pressure;Samples;Min_cycle;Max_cycle;Signal;HPM_P1;HPM_P2
2022/01/17 00:00:39;;;;;;;11.12;9.63;;;;;;;0.55;83.20;96774.57;1662318;85;21337;-81
2022/01/17 00:03:07;;;;;;;10.80;9.70;;;;;;;0.55;83.09;96771.20;1670542;85;21067;-81
2022/01/17 00:05:32;;;;;;;9.60;8.60;;;;;;;0.56;83.46;96767.25;1648876;86;21075;-81
2022/01/17 00:07:58;;;;;;;11.60;9.35;;;;;;;0.54;83.17;96756.33;1669677;86;21003;-82
2022/01/17 00:10:24;;;;;;;12.28;9.90;;;;;;;0.49;83.60;96751.20;1669290;85;21529;-82
2022/01/17 00:12:52;;;;;;;12.98;9.90;;;;;;;0.47;83.66;96752.56;1669542;85;20980;-81
2022/01/17 00:15:28;;;;;;;11.60;8.85;;;;;;;0.46;83.66;96758.60;1648825;86;20964;-81
2022/01/17 00:17:56;;;;;;;12.50;10.23;;;;;;;0.47;84.20;96734.66;1668932;86;21107;-81
2022/01/17 00:20:25;;;;;;;10.28;8.60;;;;;;;0.44;84.10;96746.39;1668256;86;21028;-82
2022/01/17 00:22:47;;;;;;;10.63;9.40;;;;;;;0.44;84.25;96739.19;1668335;86;21072;-82
2022/01/17 00:25:12;;;;;;;11.50;9.00;;;;;;;0.43;84.35;96734.54;1669211;86;21019;-82
2022/01/17 00:27:37;;;;;;;14.13;10.65;;;;;;;0.45;84.44;96734.42;1669253;85;21035;-81
2022/01/17 00:30:04;;;;;;;10.28;8.78;;;;;;;0.46;84.40;96733.03;1669503;85;21040;-81
2022/01/17 00:32:30;;;;;;;11.10;9.35;;;;;;;0.48;84.87;96735.02;1669522;86;21640;-81
2022/01/17 00:34:57;;;;;;;9.43;7.70;;;;;;;0.48;84.64;96731.64;1648490;86;21018;-82
2022/01/17 00:37:23;;;;;;;8.88;7.55;;;;;;;0.47;85.45;96728.73;1669467;86;21130;-81
2022/01/17 00:39:49;;;;;;;9.65;8.65;;;;;;;0.45;85.24;96722.92;1669597;85;21393;-81
2022/01/17 00:42:14;;;;;;;9.80;8.68;;;;;;;0.46;85.26;96722.81;1669500;86;20996;-81
2022/01/17 00:44:40;;;;;;;10.20;7.87;;;;;;;0.49;84.89;96715.41;1669368;86;20976;-81
2022/01/17 00:47:06;;;;;;;9.68;7.97;;;;;;;0.53;85.04;96715.53;1669534;86;20972;-81
2022/01/17 00:49:32;;;;;;;7.80;6.22;;;;;;;0.54;85.11;96729.48;1698155;83;21339;-81
2022/01/17 00:51:57;;;;;;;8.68;7.75;;;;;;;0.58;85.19;96733.43;1697428;83;20975;-81
2022/01/17 00:54:23;;;;;;;7.92;7.03;;;;;;;0.55;85.52;96724.71;1697691;83;20992;-81
2022/01/17 00:56:49;;;;;;;8.60;7.37;;;;;;;0.55;85.35;96723.44;1697629;83;21370;-81
2022/01/17 00:59:14;;;;;;;7.35;6.55;;;;;;;0.57;85.54;96715.19;1697677;83;20983;-81
2022/01/17 01:01:40;;;;;;;7.72;6.95;;;;;;;0.62;85.49;96694.84;1697688;83;21095;-81
2022/01/17 01:04:06;;;;;;;8.25;7.42;;;;;;;0.62;85.36;96697.41;1697526;84;21393;-81
2022/01/17 01:06:32;;;;;;;7.78;6.75;;;;;;;0.63;85.12;96693.91;1697660;83;21055;-81
2022/01/17 01:08:57;;;;;;;8.70;7.15;;;;;;;0.64;85.32;96682.29;1697734;83;21347;-81
2022/01/17 01:11:23;;;;;;;9.80;8.40;;;;;;;0.66;85.25;96678.37;1697389;85;21003;-82
2022/01/17 01:13:49;;;;;;;8.78;7.87;;;;;;;0.69;85.07;96678.14;1697646;83;20968;-82
2022/01/17 01:19:42;;;;;;;29.05;15.63;;;;;;;0.76;84.92;96672.44;1697569;83;20988;-82
2022/01/17 01:29:12;;;;;;;7.87;7.00;;;;;;;0.82;84.62;96677.59;1697596;83;21067;-82
2022/01/17 01:32:03;;;;;;;6.22;5.62;;;;;;;0.85;84.75;96653.86;1697216;83;21442;-82
2022/01/17 01:34:06;;;;;;;7.83;6.83;;;;;;;0.88;84.74;96661.77;1689500;85;21008;-81
2022/01/17 01:36:33;;;;;;;7.47;6.40;;;;;;;0.87;84.72;96649.91;1697625;83;20999;-81
2022/01/17 01:39:00;;;;;;;5.83;5.22;;;;;;;0.84;84.47;96647.12;1697681;84;21403;-81
2022/01/17 01:41:26;;;;;;;5.97;5.20;;;;;;;0.85;84.70;96641.07;1697444;85;21011;-82
2022/01/17 01:43:52;;;;;;;6.40;5.20;;;;;;;0.89;84.30;96640.37;1697576;83;20968;-82
2022/01/17 01:46:19;;;;;;;6.72;6.12;;;;;;;0.93;84.04;96630.25;1697686;83;21363;-81
2022/01/17 01:48:45;;;;;;;6.12;5.53;;;;;;;0.96;83.99;96640.70;1685997;83;20980;-81
2022/01/17 01:51:11;;;;;;;7.87;6.58;;;;;;;0.97;83.98;96635.94;1690708;84;21378;-81
2022/01/17 01:53:38;;;;;;;5.37;4.87;;;;;;;0.97;83.75;96626.98;1675788;83;21012;-81
2022/01/17 01:56:04;;;;;;;5.62;5.08;;;;;;;1.01;83.69;96636.08;1675754;84;21410;-82
2022/01/17 01:58:30;;;;;;;6.17;5.03;;;;;;;1.03;83.28;96615.83;1697681;84;21343;-81
2022/01/17 02:00:56;;;;;;;5.72;5.00;;;;;;;1.07;83.22;96610.82;1697658;84;21012;-82
2022/01/17 02:03:22;;;;;;;5.15;4.60;;;;;;;1.08;83.00;96607.80;1707849;83;20983;-82
2022/01/17 02:05:49;;;;;;;5.60;4.75;;;;;;;1.06;82.80;96604.08;1710118;84;21361;-81
2022/01/17 02:08:15;;;;;;;5.92;4.78;;;;;;;1.06;82.60;96592.56;1710342;84;20983;-82
2022/01/17 02:10:40;;;;;;;4.97;4.35;;;;;;;1.09;82.49;96602.55;1710237;83;20998;-81
2022/01/17 02:13:06;;;;;;;5.28;4.72;;;;;;;1.11;82.35;96607.09;1710280;84;20979;-82
2022/01/17 02:15:32;;;;;;;5.35;4.75;;;;;;;1.13;82.28;96591.61;1710212;84;20963;-81
2022/01/17 02:17:58;;;;;;;5.75;4.67;;;;;;;1.13;82.20;96598.83;1710275;84;20947;-82
2022/01/17 02:20:34;;;;;;;6.55;5.87;;;;;;;1.13;82.29;96596.27;1710007;84;20967;-82
2022/01/17 02:22:54;;;;;;;6.83;5.22;;;;;;;1.14;82.23;96588.96;1709130;82;20991;-82
2022/01/17 02:25:20;;;;;;;5.30;4.30;;;;;;;1.18;82.14;96594.66;1710411;83;21011;-81
2022/01/17 02:27:46;;;;;;;5.83;5.05;;;;;;;1.19;81.83;96591.97;1710197;84;21381;-82
2022/01/17 02:30:13;;;;;;;7.50;5.55;;;;;;;1.19;81.91;96592.44;1710193;84;20975;-81
2022/01/17 02:32:39;;;;;;;6.92;6.17;;;;;;;1.20;81.93;96585.11;1710169;84;20974;-81
2022/01/17 02:35:22;;;;;;;6.60;5.53;;;;;;;1.18;81.97;96581.39;1710266;83;21031;-81
2022/01/17 02:37:47;;;;;;;5.45;4.65;;;;;;;1.19;81.75;96566.38;1710206;84;21341;-81
2022/01/17 02:40:15;;;;;;;7.10;5.78;;;;;;;1.22;81.59;96570.91;1689941;84;20994;-81
2022/01/17 02:42:41;;;;;;;5.83;5.22;;;;;;;1.23;81.54;96563.57;1710151;83;21061;-82
2022/01/17 02:45:29;;;;;;;9.35;7.03;;;;;;;1.24;81.62;96565.20;1710266;84;20990;-82
2022/01/17 02:47:39;;;;;;;;;;;;;;;1.24;81.64;96548.09;1709020;84;21377;-82
2022/01/17 02:50:06;;;;;;;6.75;5.55;;;;;;;1.24;81.39;96530.64;1710166;84;20102;-82
2022/01/17 02:52:32;;;;;;;5.50;5.00;;;;;;;1.22;81.36;96520.52;1710113;84;20982;-82
2022/01/17 02:54:57;;;;;;;7.03;4.97;;;;;;;1.23;81.44;96510.63;1690278;84;20915;-82
2022/01/17 02:57:25;;;;;;;6.65;5.92;;;;;;;1.24;81.00;96513.53;1710295;83;20974;-81
2022/01/17 02:59:50;;;;;;;7.12;6.20;;;;;;;1.29;80.89;96513.98;1710252;84;20991;-81
2022/01/17 03:02:16;;;;;;;8.23;6.58;;;;;;;1.25;80.83;96503.64;1711187;83;20998;-82
2022/01/17 03:04:43;;;;;;;7.65;6.20;;;;;;;1.31;80.77;96508.30;1710741;84;21100;-82
2022/01/17 03:07:09;;;;;;;6.58;5.87;;;;;;;1.33;80.46;96510.73;1710424;84;21266;-81
2022/01/17 03:09:44;;;;;;;6.90;6.00;;;;;;;1.34;80.51;96511.08;1710548;84;20993;-81
2022/01/17 03:12:03;;;;;;;7.08;5.95;;;;;;;1.35;80.23;96510.95;1709382;82;21023;-82
2022/01/17 03:14:29;;;;;;;9.83;5.85;;;;;;;1.36;80.05;96508.73;1710463;84;21397;-82
2022/01/17 03:16:56;;;;;;;7.20;5.53;;;;;;;1.39;79.69;96516.16;1710394;83;20963;-82
2022/01/17 03:19:21;;;;;;;5.70;4.62;;;;;;;1.43;79.29;96518.01;1684769;85;21010;-81
2022/01/17 03:21:47;;;;;;;7.53;6.17;;;;;;;1.46;78.95;96510.08;1704071;84;21374;-82
2022/01/17 03:24:13;;;;;;;8.50;7.37;;;;;;;1.49;79.30;96516.26;1710333;84;21012;-82
2022/01/17 03:26:38;;;;;;;8.43;6.72;;;;;;;1.49;79.31;96528.59;1690256;84;21344;-81
2022/01/17 03:29:04;;;;;;;9.40;6.72;;;;;;;1.52;78.93;96526.25;1710285;83;21018;-82
2022/01/17 03:31:30;;;;;;;7.62;6.83;;;;;;;1.54;78.79;96528.69;1710184;83;21905;-82
2022/01/17 03:33:56;;;;;;;8.93;7.08;;;;;;;1.54;79.01;96523.56;1710410;84;21065;-81
2022/01/17 03:36:21;;;;;;;8.68;7.62;;;;;;;1.54;79.16;96512.05;1690338;84;20978;-82
2022/01/17 03:38:47;;;;;;;7.80;6.17;;;;;;;1.53;79.21;96509.14;1710338;84;21412;-81
2022/01/17 03:41:14;;;;;;;8.50;7.03;;;;;;;1.50;79.34;96502.05;1690166;84;21042;-82
2022/01/17 03:43:40;;;;;;;9.78;7.08;;;;;;;1.50;79.19;96514.05;1710609;84;20963;-82
2022/01/17 03:46:06;;;;;;;9.88;7.45;;;;;;;1.50;79.37;96511.48;1710705;83;21043;-82
2022/01/17 03:48:32;;;;;;;9.38;7.83;;;;;;;1.52;79.28;96513.45;1710815;83;21370;-82
2022/01/17 03:50:59;;;;;;;9.20;7.00;;;;;;;1.53;79.46;96515.08;1710560;84;20990;-81
2022/01/17 03:53:25;;;;;;;7.78;6.97;;;;;;;1.52;79.29;96494.24;1710519;83;21018;-81
2022/01/17 03:55:52;;;;;;;8.75;7.00;;;;;;;1.53;79.49;96504.02;1710603;84;21039;-82
2022/01/17 03:58:17;;;;;;;9.40;7.30;;;;;;;1.53;79.49;96509.14;1710654;84;21027;-81
2022/01/17 04:00:46;;;;;;;7.70;6.85;;;;;;;1.53;79.67;96498.89;1710562;84;21014;-82
2022/01/17 04:03:12;;;;;;;8.90;7.70;;;;;;;1.51;79.93;96495.18;1712223;83;21398;-81
2022/01/17 04:05:39;;;;;;;8.70;7.45;;;;;;;1.49;79.99;96494.02;1717921;83;21034;-81
2022/01/17 04:08:05;;;;;;;9.08;7.72;;;;;;;1.47;80.13;96495.90;1717937;83;21380;-82
2022/01/17 04:10:31;;;;;;;8.55;7.60;;;;;;;1.48;80.26;96497.99;1705971;83;21054;-81
2022/01/17 04:13:03;;;;;;;10.55;8.50;;;;;;;1.48;80.42;96500.55;1697836;83;20980;-82
2022/01/17 04:15:24;;;;;;;9.80;7.85;;;;;;;1.47;80.59;96506.14;1696752;84;20988;-82
2022/01/17 04:17:50;;;;;;;10.58;8.75;;;;;;;1.43;80.94;96499.61;1697553;83;21095;-81
2022/01/17 04:20:25;;;;;;;11.88;8.38;;;;;;;1.41;80.85;96498.12;1697440;83;21014;-81
2022/01/17 04:22:50;;;;;;;11.18;8.53;;;;;;;1.42;80.92;96494.63;1696311;84;20980;-81
2022/01/17 04:25:12;;;;;;;12.33;8.45;;;;;;;1.43;80.84;96499.61;1697024;84;20987;-82
2022/01/17 04:27:38;;;;;;;12.13;9.00;;;;;;;1.44;80.85;96514.52;1697610;83;21419;-82
2022/01/17 04:30:06;;;;;;;11.57;9.18;;;;;;;1.44;80.91;96497.40;1697627;83;21086;-82
2022/01/17 04:32:31;;;;;;;12.95;8.98;;;;;;;1.42;80.95;96490.31;1697372;84;20972;-81
2022/01/17 04:34:57;;;;;;;11.25;8.53;;;;;;;1.42;81.02;96498.00;1697583;83;21027;-82
2022/01/17 04:37:23;;;;;;;7.40;6.20;;;;;;;1.44;80.94;96499.96;1697564;83;21434;-81
2022/01/17 04:39:49;;;;;;;10.30;8.20;;;;;;;1.45;80.98;96488.78;1697350;84;21158;-81
2022/01/17 04:42:17;;;;;;;11.28;7.75;;;;;;;1.47;80.85;96500.20;1697253;84;21461;-82
2022/01/17 04:47:31;;;;;;;9.18;7.10;;;;;;;1.48;80.92;96505.67;1697370;83;20991;-82
2022/01/17 04:49:58;;;;;;;11.63;8.93;;;;;;;1.50;80.85;96511.48;1697435;85;21025;-82
2022/01/17 04:52:24;;;;;;;9.23;7.33;;;;;;;1.50;80.70;96500.77;1697550;85;21023;-82
2022/01/17 04:54:54;;;;;;;9.83;7.37;;;;;;;1.50;80.71;96490.53;1675835;85;21757;-81
2022/01/17 04:57:21;;;;;;;12.82;9.33;;;;;;;1.48;80.80;96491.12;1697556;84;20983;-82
2022/01/17 04:59:48;;;;;;;14.33;10.28;;;;;;;1.50;80.86;96497.40;1697396;85;20952;-81
2022/01/17 05:02:14;;;;;;;10.90;8.45;;;;;;;1.50;80.72;96499.95;1675430;83;21006;-82
2022/01/17 05:04:40;;;;;;;12.23;8.45;;;;;;;1.52;80.85;96472.95;1710622;83;21030;-81
2022/01/17 05:07:06;;;;;;;9.98;8.50;;;;;;;1.53;80.68;96484.34;1710139;84;21000;-81
2022/01/17 05:09:32;;;;;;;12.15;9.75;;;;;;;1.54;80.63;96477.47;1710252;83;20963;-81
2022/01/17 05:11:58;;;;;;;10.48;8.35;;;;;;;1.54;80.67;96471.06;1710081;84;21397;-81
2022/01/17 05:14:25;;;;;;;11.20;8.23;;;;;;;1.53;80.52;96470.26;1710023;83;21070;-81
2022/01/17 05:16:59;;;;;;;11.03;8.03;;;;;;;1.56;80.53;96441.83;1690760;82;21412;-81
2022/01/17 05:22:03;;;;;;;11.40;8.83;;;;;;;1.61;80.53;96455.53;1644390;87;21040;-81
2022/01/17 05:24:29;;;;;;;7.78;6.80;;;;;;;1.60;80.50;96464.16;1653944;85;20984;-81
2022/01/17 05:26:55;;;;;;;10.72;7.60;;;;;;;1.59;80.38;96458.23;1682028;85;20973;-81
2022/01/17 05:29:22;;;;;;;10.53;8.40;;;;;;;1.62;80.42;96458.44;1681768;85;20986;-82
2022/01/17 05:31:48;;;;;;;7.67;6.87;;;;;;;1.65;80.40;96453.09;1681950;85;21337;-81
2022/01/17 05:34:14;;;;;;;7.60;6.65;;;;;;;1.65;80.20;96419.80;1681728;85;20998;-81
2022/01/17 05:36:39;;;;;;;23.42;14.03;;;;;;;1.68;80.06;96448.53;1681989;85;20950;-82
2022/01/17 05:39:05;;;;;;;69.07;37.05;;;;;;;1.71;80.02;96441.05;1681998;85;20928;-82
2022/01/17 05:41:31;;;;;;;62.23;34.30;;;;;;;1.70;79.79;96422.31;1681962;85;21001;-82
2022/01/17 05:43:57;;;;;;;56.80;23.65;;;;;;;1.73;79.87;96418.22;1681710;85;20962;-81
2022/01/17 05:46:24;;;;;;;29.77;14.87;;;;;;;1.75;79.79;96417.61;1681959;85;21468;-81
2022/01/17 05:48:49;;;;;;;17.95;9.98;;;;;;;1.77;79.57;96413.64;1681836;85;21373;-82
2022/01/17 05:51:15;;;;;;;9.48;7.62;;;;;;;1.78;79.44;96415.27;1681733;85;20949;-81
2022/01/17 05:53:41;;;;;;;82.15;33.63;;;;;;;1.80;79.49;96415.98;1681857;85;21032;-82
2022/01/17 05:56:06;;;;;;;40.70;17.73;;;;;;;1.80;79.52;96418.54;1681631;85;20966;-81
2022/01/17 05:58:32;;;;;;;21.02;10.00;;;;;;;1.82;79.51;96403.03;1681758;85;20950;-82
2022/01/17 06:00:59;;;;;;;14.10;8.48;;;;;;;1.82;79.53;96414.56;1681718;85;20978;-82
2022/01/17 06:03:25;;;;;;;18.80;11.00;;;;;;;1.84;79.37;96411.41;1682735;85;21029;-81
2022/01/17 06:05:53;;;;;;;25.70;13.48;;;;;;;1.83;79.38;96407.22;1681876;85;21009;-82
2022/01/17 06:08:20;;;;;;;22.10;13.08;;;;;;;1.84;79.31;96389.63;1681781;85;21341;-83
2022/01/17 06:10:46;;;;;;;21.20;12.70;;;;;;;1.83;79.26;96398.25;1681813;85;21026;-81
2022/01/17 06:13:12;;;;;;;20.45;10.43;;;;;;;1.85;79.32;96393.34;1681876;85;21368;-81
2022/01/17 06:15:37;;;;;;;26.23;12.82;;;;;;;1.89;79.17;96386.20;1681955;85;20958;-81
2022/01/17 06:18:03;;;;;;;27.77;13.90;;;;;;;1.89;79.22;96392.61;1682005;85;21017;-81
2022/01/17 06:20:29;;;;;;;11.53;7.33;;;;;;;1.89;79.30;96395.98;1681768;85;21016;-82
2022/01/17 06:22:55;;;;;;;13.48;8.80;;;;;;;1.87;79.33;96391.45;1681951;85;21356;-81
2022/01/17 06:25:20;;;;;;;13.13;7.35;;;;;;;1.89;79.31;96404.14;1681726;85;20989;-82
2022/01/17 06:27:47;;;;;;;13.83;8.23;;;;;;;1.88;79.26;96413.58;1681675;85;20962;-82
2022/01/17 06:30:13;;;;;;;10.40;7.33;;;;;;;1.90;79.26;96401.91;1681882;85;21000;-82
2022/01/17 06:32:41;;;;;;;22.25;11.88;;;;;;;1.92;79.44;96410.28;1681778;85;21297;-81
2022/01/17 06:35:07;;;;;;;43.78;20.30;;;;;;;1.92;79.35;96405.16;1681574;85;20965;-82
2022/01/17 06:37:34;;;;;;;14.10;9.83;;;;;;;1.90;79.45;96404.48;1681922;85;21048;-82
2022/01/17 06:39:59;;;;;;;24.40;12.50;;;;;;;1.88;79.48;96397.39;1681824;85;21463;-81
2022/01/17 06:42:25;;;;;;;60.78;24.23;;;;;;;1.87;79.44;96391.93;1681859;85;21073;-81
2022/01/17 06:44:51;;;;;;;18.98;10.65;;;;;;;1.87;79.51;96402.18;1681622;85;20946;-81
2022/01/17 06:47:17;;;;;;;18.73;10.58;;;;;;;1.88;79.59;96398.67;1681916;85;20943;-81
2022/01/17 06:49:43;;;;;;;32.15;15.18;;;;;;;1.87;79.66;96394.02;1681694;85;21076;-82
2022/01/17 06:52:09;;;;;;;13.78;8.60;;;;;;;1.85;79.77;96383.09;1682107;85;21028;-82
2022/01/17 06:54:35;;;;;;;37.85;18.25;;;;;;;1.85;79.84;96385.66;1682046;85;20941;-81
2022/01/17 06:57:00;;;;;;;12.10;8.65;;;;;;;1.86;79.87;96376.22;1681887;85;21380;-82
2022/01/17 06:59:26;;;;;;;27.10;13.95;;;;;;;1.90;79.99;96366.05;1681978;85;20981;-82
2022/01/17 07:01:52;;;;;;;24.57;15.25;;;;;;;1.90;79.91;96349.39;1681779;85;20980;-82
2022/01/17 07:04:18;;;;;;;15.80;9.60;;;;;;;1.90;80.09;96341.23;1683955;85;21388;-82
2022/01/17 07:06:44;;;;;;;22.62;13.60;;;;;;;1.89;80.19;96324.71;1688935;85;21013;-82
2022/01/17 07:09:15;;;;;;;19.12;12.30;;;;;;;1.86;80.43;96321.94;1678135;85;21007;-81
2022/01/17 07:11:39;;;;;;;26.85;15.68;;;;;;;1.85;80.74;96319.51;1671433;85;21123;-81
2022/01/17 07:14:08;;;;;;;22.65;14.47;;;;;;;1.85;80.81;96317.76;1669493;86;21036;-81
2022/01/17 07:16:40;;;;;;;17.67;12.65;;;;;;;1.85;81.19;96322.08;1648332;86;21007;-82
2022/01/17 07:19:06;;;;;;;10.65;8.23;;;;;;;1.82;81.34;96334.67;1669455;86;21398;-82
2022/01/17 07:21:32;;;;;;;10.05;8.08;;;;;;;1.79;81.49;96362.65;1669184;85;20964;-81
2022/01/17 07:24:00;;;;;;;20.05;12.63;;;;;;;1.77;82.10;96376.03;1669184;86;20984;-82
2022/01/17 07:26:25;;;;;;;16.45;11.30;;;;;;;1.74;82.45;96383.97;1669239;86;20975;-82
2022/01/17 07:28:52;;;;;;;13.58;9.85;;;;;;;1.72;82.62;96382.02;1669013;85;21043;-82
2022/01/17 07:31:18;;;;;;;12.18;10.45;;;;;;;1.70;82.55;96403.58;1669251;86;20968;-82
2022/01/17 07:33:44;;;;;;;17.10;10.50;;;;;;;1.68;82.85;96420.82;1669211;86;20994;-82
2022/01/17 07:36:12;;;;;;;18.82;11.10;;;;;;;1.66;82.99;96418.86;1669337;86;21079;-82
2022/01/17 07:38:37;;;;;;;12.00;8.53;;;;;;;1.66;83.44;96409.89;1669221;83;21015;-81
2022/01/17 07:41:03;;;;;;;15.78;11.75;;;;;;;1.66;83.62;96344.11;1669330;85;21067;-82
2022/01/17 07:43:29;;;;;;;16.45;10.15;;;;;;;1.63;83.90;96323.88;1669511;85;20996;-82
2022/01/17 07:46:13;;;;;;;14.13;10.00;;;;;;;1.62;84.06;96329.91;1669475;86;21082;-82
2022/01/17 07:51:21;;;;;;;19.73;13.13;;;;;;;1.64;84.20;96314.45;1681206;84;21015;-82
2022/01/17 07:53:47;;;;;;;22.65;12.23;;;;;;;1.62;84.60;96303.02;1697265;84;20962;-82
2022/01/17 07:56:13;;;;;;;12.68;9.28;;;;;;;1.60;84.79;96286.97;1697105;84;21247;-81
2022/01/17 07:58:40;;;;;;;13.58;10.50;;;;;;;1.58;84.72;96299.10;1697474;83;21008;-82
2022/01/17 08:01:06;;;;;;;9.88;7.60;;;;;;;1.57;84.83;96310.75;1697169;84;21015;-81
2022/01/17 08:03:33;;;;;;;16.90;11.73;;;;;;;1.56;85.33;96290.73;1697270;83;21027;-82
2022/01/17 08:05:59;;;;;;;13.08;9.60;;;;;;;1.59;84.90;96292.23;1697165;84;20987;-82
2022/01/17 08:08:25;;;;;;;11.03;8.53;;;;;;;1.62;85.04;96290.69;1697182;84;21015;-81
2022/01/17 08:10:52;;;;;;;12.23;8.95;;;;;;;1.62;85.21;96264.60;1675494;84;21381;-82
2022/01/17 08:13:21;;;;;;;16.23;10.60;;;;;;;1.64;85.13;96246.57;1697241;83;21051;-82
2022/01/17 08:15:46;;;;;;;13.70;9.48;;;;;;;1.63;85.28;96235.52;1697073;84;20960;-81
2022/01/17 08:18:13;;;;;;;19.48;11.65;;;;;;;1.63;85.41;96221.91;1697301;84;21023;-82
2022/01/17 08:20:39;;;;;;;10.72;8.10;;;;;;;1.63;85.33;96195.82;1697271;84;21378;-82
2022/01/17 08:23:04;;;;;;;9.53;7.53;;;;;;;1.64;85.07;96183.36;1675520;84;20984;-81
2022/01/17 08:25:31;;;;;;;14.40;9.63;;;;;;;1.69;84.94;96196.56;1697249;83;21150;-82
2022/01/17 08:27:56;;;;;;;10.00;7.53;;;;;;;1.73;84.76;96194.55;1697341;84;21425;-82
2022/01/17 08:30:23;;;;;;;10.45;7.80;;;;;;;1.75;84.62;96176.81;1697584;83;21043;-82
2022/01/17 08:32:50;;;;;;;9.68;6.50;;;;;;;1.76;84.56;96169.94;1697470;84;21482;-82
2022/01/17 08:35:19;;;;;;;26.57;14.28;;;;;;;1.77;84.37;96154.44;1697194;84;21039;-81
2022/01/17 08:37:44;;;;;;;11.35;7.83;;;;;;;1.83;84.02;96179.20;1697199;84;21019;-82
2022/01/17 08:40:11;;;;;;;10.75;7.90;;;;;;;1.86;83.55;96191.27;1697352;83;21039;-82
2022/01/17 08:42:37;;;;;;;17.57;10.68;;;;;;;1.95;83.42;96149.94;1697259;83;21078;-81
2022/01/17 08:45:06;;;;;;;10.48;7.70;;;;;;;1.99;83.39;96135.94;1697376;84;21119;-82
2022/01/17 08:47:32;;;;;;;10.13;6.87;;;;;;;2.02;82.95;96130.06;1696834;83;21004;-82
2022/01/17 08:49:58;;;;;;;10.30;7.83;;;;;;;2.04;82.75;96146.58;1682417;83;20999;-81
2022/01/17 08:52:25;;;;;;;7.42;6.25;;;;;;;2.06;82.73;96133.16;1693936;85;20999;-82
2022/01/17 08:54:50;;;;;;;13.20;9.08;;;;;;;2.09;82.67;96140.56;1697507;84;21031;-82
2022/01/17 08:57:17;;;;;;;9.05;6.72;;;;;;;2.13;82.63;96116.31;1697562;83;20984;-81
2022/01/17 08:59:45;;;;;;;8.65;7.12;;;;;;;2.17;82.23;96088.17;1697724;84;21413;-82
2022/01/17 09:02:11;;;;;;;11.18;8.28;;;;;;;2.20;81.97;96099.42;1697442;84;21427;-82
2022/01/17 09:04:40;;;;;;;10.85;6.83;;;;;;;2.21;81.99;96094.63;1691894;83;21135;-82
2022/01/17 09:07:04;;;;;;;10.63;7.08;;;;;;;2.23;81.83;96108.12;1688856;85;21035;-82
2022/01/17 09:09:30;;;;;;;10.98;8.13;;;;;;;2.29;81.97;96110.16;1689116;85;21119;-81
2022/01/17 09:11:56;;;;;;;6.70;5.47;;;;;;;2.32;81.05;96055.22;1689287;85;20992;-82
2022/01/17 09:14:21;;;;;;;6.62;5.95;;;;;;;2.36;81.48;96072.75;1689166;85;21016;-82
2022/01/17 09:16:47;;;;;;;7.15;5.92;;;;;;;2.38;81.28;96087.52;1689172;85;21000;-82
2022/01/17 09:19:13;;;;;;;8.33;6.37;;;;;;;2.39;81.24;96076.31;1689068;85;21000;-82
2022/01/17 09:21:38;;;;;;;7.70;5.90;;;;;;;2.42;81.14;96100.86;1689451;85;21004;-82
2022/01/17 09:24:05;;;;;;;6.62;5.53;;;;;;;2.46;81.23;96093.73;1689070;85;21379;-82
2022/01/17 09:26:31;;;;;;;7.87;6.12;;;;;;;2.49;81.23;96071.17;1689428;85;21027;-82
2022/01/17 09:28:57;;;;;;;9.35;6.10;;;;;;;2.51;81.31;96076.16;1689265;85;21044;-82
2022/01/17 09:31:23;;;;;;;7.62;6.28;;;;;;;2.52;81.14;96105.98;1688889;85;21083;-82
2022/01/17 09:33:49;;;;;;;8.33;6.42;;;;;;;2.48;81.50;96083.66;1689427;85;21483;-82
2022/01/17 09:36:14;;;;;;;9.05;6.72;;;;;;;2.45;81.95;96074.97;1689271;85;21055;-81
2022/01/17 09:38:41;;;;;;;9.00;6.70;;;;;;;2.41;82.14;96080.02;1689293;85;21052;-82
2022/01/17 09:41:06;;;;;;;7.80;6.55;;;;;;;2.40;82.39;96070.23;1689490;85;21036;-82
2022/01/17 09:43:34;;;;;;;8.70;6.70;;;;;;;2.38;83.11;96082.86;1689035;85;21071;-81
2022/01/17 09:46:00;;;;;;;10.08;7.62;;;;;;;2.30;83.27;96061.78;1688914;85;21020;-82
2022/01/17 09:48:34;;;;;;;12.28;8.95;;;;;;;2.25;83.68;96052.39;1688517;83;21383;-82
2022/01/17 09:50:58;;;;;;;9.85;8.43;;;;;;;2.21;84.16;96052.81;1679793;85;21016;-82
2022/01/17 09:53:24;;;;;;;9.13;6.85;;;;;;;2.15;84.06;96073.41;1661493;86;21039;-82
2022/01/17 09:55:49;;;;;;;10.18;7.62;;;;;;;2.08;85.33;96060.31;1661468;86;20999;-82
2022/01/17 09:58:15;;;;;;;8.20;7.25;;;;;;;2.03;85.25;96048.86;1661913;86;21393;-82
2022/01/17 10:00:43;;;;;;;8.35;7.00;;;;;;;2.00;85.41;96057.64;1662044;86;21028;-82
2022/01/17 10:03:13;;;;;;;9.68;6.97;;;;;;;1.97;85.97;96046.86;1661782;86;20964;-82
2022/01/17 10:05:39;;;;;;;11.63;8.08;;;;;;;1.93;86.31;96041.17;1632210;86;21055;-82
2022/01/17 10:08:15;;;;;;;8.73;7.80;;;;;;;1.91;86.23;96031.54;1691201;85;20993;-81
2022/01/17 10:10:50;;;;;;;8.45;7.05;;;;;;;1.89;86.58;96033.91;1691360;85;21002;-82
2022/01/17 10:13:24;;;;;;;8.80;7.65;;;;;;;1.86;87.01;96045.72;1691012;85;21420;-82
2022/01/17 10:16:11;;;;;;;10.08;8.45;;;;;;;1.87;86.99;96024.27;1690609;85;21027;-82
2022/01/17 10:19:00;;;;;;;9.85;7.28;;;;;;;1.89;87.87;96009.56;1684170;84;21105;-82
2022/01/17 10:21:43;;;;;;;11.30;7.00;;;;;;;1.89;88.10;96004.44;1681696;85;20973;-82
2022/01/17 10:24:20;;;;;;;7.97;6.40;;;;;;;1.89;88.50;95980.91;1681582;85;20951;-82
2022/01/17 10:29:37;;;;;;;7.20;6.00;;;;;;;1.93;88.80;95968.63;1681744;85;21017;-82
2022/01/17 10:37:13;;;;;;;5.87;5.00;;;;;;;2.05;87.89;95971.37;1682469;85;21099;-81
2022/01/17 10:40:04;;;;;;;4.85;4.35;;;;;;;2.07;88.31;95942.56;1682145;85;20982;-81
2022/01/17 10:42:48;;;;;;;6.53;5.00;;;;;;;2.08;87.79;95934.73;1682036;85;21037;-81
2022/01/17 10:45:17;;;;;;;5.30;4.70;;;;;;;2.13;87.75;95921.99;1682101;85;20977;-81
2022/01/17 10:47:43;;;;;;;6.15;4.78;;;;;;;2.15;87.00;95913.20;1682192;85;21516;-82
2022/01/17 10:50:14;;;;;;;4.42;3.45;;;;;;;2.21;86.25;95913.91;1682056;85;20982;-81
2022/01/17 10:52:46;;;;;;;5.92;5.03;;;;;;;2.23;86.33;95888.94;1682116;85;21006;-82
2022/01/17 10:55:24;;;;;;;6.50;4.60;;;;;;;2.25;86.31;95906.27;1682090;85;21013;-82
2022/01/17 10:57:59;;;;;;;6.78;4.60;;;;;;;2.25;85.89;95880.63;1681871;85;21444;-82
2022/01/17 11:00:38;;;;;;;4.95;3.83;;;;;;;2.22;85.94;95905.27;1680681;85;21368;-82
2022/01/17 11:03:06;;;;;;;4.17;3.60;;;;;;;2.21;85.89;95915.67;1682131;85;20990;-81
2022/01/17 11:05:33;;;;;;;6.20;4.45;;;;;;;2.18;86.04;95908.27;1684659;85;20993;-82
2022/01/17 11:08:01;;;;;;;7.30;6.17;;;;;;;2.18;86.47;95942.88;1672345;85;20999;-82
2022/01/17 11:10:35;;;;;;;5.15;3.90;;;;;;;2.17;86.30;95915.16;1669500;86;21032;-82
2022/01/17 11:13:04;;;;;;;5.65;4.95;;;;;;;2.14;86.73;95919.28;1669276;86;21538;-81
2022/01/17 11:15:33;;;;;;;8.08;6.50;;;;;;;2.10;86.92;95917.93;1669310;85;21386;-81
2022/01/17 11:18:05;;;;;;;6.10;5.50;;;;;;;2.07;86.93;95907.97;1669078;86;21084;-81
2022/01/17 11:20:32;;;;;;;;;;;;;;;2.03;87.53;95911.77;1671702;84;21027;-81
2022/01/17 11:22:59;;;;;;;10.75;8.13;;;;;;;1.97;87.40;95925.95;1669192;85;20407;-81
2022/01/17 11:25:34;;;;;;;10.05;6.67;;;;;;;1.94;87.71;95903.14;1668866;86;21079;-81
2022/01/17 11:28:03;;;;;;;9.33;6.87;;;;;;;1.93;88.79;95916.09;1669016;86;21469;-81
2022/01/17 11:30:28;;;;;;;8.03;6.15;;;;;;;1.89;89.14;95895.56;1669049;86;21019;-81
2022/01/17 11:32:55;;;;;;;9.13;6.65;;;;;;;1.85;88.90;95930.90;1669006;85;21039;-81
2022/01/17 11:35:21;;;;;;;8.18;5.25;;;;;;;1.80;88.48;95925.39;1669060;86;21072;-81
2022/01/17 11:37:51;;;;;;;9.68;5.67;;;;;;;1.75;89.38;95921.95;1668957;86;21076;-81
2022/01/17 11:40:24;;;;;;;7.28;6.58;;;;;;;1.67;89.44;95910.80;1669075;86;21083;-81
2022/01/17 11:42:51;;;;;;;8.80;6.17;;;;;;;1.62;89.41;95907.34;1668480;86;21094;-81
2022/01/17 11:45:30;;;;;;;8.48;5.42;;;;;;;1.59;89.67;95892.73;1669056;85;21004;-81
2022/01/17 11:47:59;;;;;;;13.75;7.62;;;;;;;1.56;90.29;95905.34;1668995;86;21003;-81
2022/01/17 11:50:38;;;;;;;11.73;8.05;;;;;;;1.54;89.74;95920.05;1668890;86;20984;-81
2022/01/17 11:53:18;;;;;;;15.00;11.90;;;;;;;1.55;90.29;95905.02;1669218;86;21016;-81
2022/01/17 11:55:48;;;;;;;9.93;6.75;;;;;;;1.57;90.24;95909.52;1669159;86;21474;-81
2022/01/17 11:58:34;;;;;;;9.30;7.60;;;;;;;1.57;90.97;95922.33;1669080;85;20972;-81
2022/01/17 12:01:13;;;;;;;9.25;6.22;;;;;;;1.58;90.64;95930.34;1669256;86;21066;-81
2022/01/17 12:03:49;;;;;;;11.33;7.22;;;;;;;1.58;91.11;95934.66;1669183;85;21378;-81